createdAt,value
2017-10-01T00:01:40.854Z,9.26
2017-10-01T00:04:08.637Z,9.28
2017-10-01T00:06:36.430Z,9.31
2017-10-01T00:09:04.201Z,9.33
2017-10-01T00:11:31.952Z,9.37
2017-10-01T00:13:59.656Z,9.39
2017-10-01T00:16:27.371Z,9.35
2017-10-01T00:18:55.110Z,9.35
2017-10-01T00:21:22.977Z,9.36
2017-10-01T00:23:51.081Z,9.43
2017-10-01T00:26:18.967Z,9.42
2017-10-01T00:28:46.673Z,9.43
2017-10-01T00:31:14.415Z,9.50
2017-10-01T00:33:42.153Z,9.53
2017-10-01T00:36:09.860Z,9.61
2017-10-01T00:38:37.604Z,9.43
2017-10-01T00:41:05.309Z,9.46
2017-10-01T00:43:33.973Z,9.40
2017-10-01T00:46:01.687Z,9.38
2017-10-01T00:48:29.421Z,9.44
2017-10-01T00:50:57.285Z,9.55
2017-10-01T00:53:25.030Z,9.53
2017-10-01T00:55:52.966Z,9.51
2017-10-01T00:58:20.669Z,9.54
2017-10-01T01:00:48.534Z,9.58
2017-10-01T01:03:16.365Z,9.61
2017-10-01T01:05:44.128Z,9.61
2017-10-01T01:08:11.852Z,9.54
2017-10-01T01:10:39.682Z,9.38
2017-10-01T01:13:07.470Z,9.29
2017-10-01T01:15:35.223Z,9.31
2017-10-01T01:18:02.912Z,9.42
2017-10-01T01:20:31.062Z,9.39
2017-10-01T01:22:58.831Z,9.42
2017-10-01T01:25:26.724Z,9.40
2017-10-01T01:27:54.684Z,9.50
2017-10-01T01:30:22.424Z,9.20
2017-10-01T01:32:50.221Z,9.21
2017-10-01T01:35:18.672Z,8.88
2017-10-01T01:37:46.407Z,9.02
2017-10-01T01:40:14.253Z,9.05
2017-10-01T01:42:41.984Z,8.96
2017-10-01T01:45:09.759Z,8.77
2017-10-01T01:47:37.545Z,8.90
2017-10-01T01:50:05.416Z,8.92
2017-10-01T01:52:33.314Z,8.86
2017-10-01T01:55:01.074Z,8.80
2017-10-01T01:57:28.823Z,8.77
2017-10-01T01:59:56.605Z,8.84
2017-10-01T02:02:24.422Z,8.69
2017-10-01T02:04:52.861Z,8.62
2017-10-01T02:07:20.579Z,8.64
2017-10-01T02:09:48.476Z,8.80
2017-10-01T02:12:16.212Z,8.85
2017-10-01T02:14:43.987Z,8.61
2017-10-01T02:17:11.770Z,8.53
2017-10-01T02:19:39.483Z,8.38
2017-10-01T02:22:07.257Z,8.50
2017-10-01T02:24:34.973Z,8.37
2017-10-01T02:27:02.675Z,8.30
2017-10-01T02:29:30.506Z,8.24
2017-10-01T02:31:58.243Z,8.17
2017-10-01T02:34:26.035Z,8.20
2017-10-01T02:36:54.950Z,8.06
2017-10-01T02:39:22.675Z,8.09
2017-10-01T02:41:50.445Z,7.93
2017-10-01T02:44:18.244Z,7.93
2017-10-01T02:46:45.973Z,8.06
2017-10-01T02:49:13.810Z,8.17
2017-10-01T02:51:41.695Z,8.12
2017-10-01T02:54:09.475Z,7.96
2017-10-01T02:56:38.038Z,8.19
2017-10-01T02:59:06.598Z,8.30
2017-10-01T03:01:34.410Z,8.15
2017-10-01T03:04:02.127Z,8.19
2017-10-01T03:06:30.228Z,8.00
2017-10-01T03:08:58.013Z,8.16
2017-10-01T03:11:25.799Z,8.28
2017-10-01T03:13:53.555Z,8.35
2017-10-01T03:16:21.350Z,8.35
2017-10-01T03:18:49.121Z,8.22
2017-10-01T03:21:16.916Z,8.27
2017-10-01T03:23:44.683Z,8.35
2017-10-01T03:26:12.465Z,8.42
2017-10-01T03:28:40.231Z,8.56
2017-10-01T03:31:07.990Z,8.59
2017-10-01T03:33:35.873Z,8.50
2017-10-01T03:36:03.637Z,8.57
2017-10-01T03:38:31.448Z,8.63
2017-10-01T03:40:59.165Z,8.68
2017-10-01T03:43:26.936Z,8.78
2017-10-01T03:45:54.781Z,8.70
2017-10-01T03:48:22.718Z,8.71
2017-10-01T03:50:50.462Z,8.56
2017-10-01T03:53:18.274Z,8.55
2017-10-01T03:55:46.023Z,8.42
2017-10-01T03:58:13.771Z,8.55
2017-10-01T04:00:41.781Z,8.61
2017-10-01T04:03:09.626Z,8.53
2017-10-01T04:05:37.321Z,8.52
2017-10-01T04:08:05.084Z,8.60
2017-10-01T04:10:32.791Z,8.48
2017-10-01T04:13:00.483Z,8.53
2017-10-01T04:15:28.227Z,8.57
2017-10-01T04:17:55.906Z,8.41
2017-10-01T04:20:23.773Z,8.32
2017-10-01T04:22:51.445Z,8.38
2017-10-01T04:25:19.160Z,8.43
2017-10-01T04:27:46.906Z,8.39
2017-10-01T04:30:14.776Z,8.53
2017-10-01T04:32:42.538Z,8.56
2017-10-01T04:35:10.276Z,8.53
2017-10-01T04:37:38.039Z,8.64
2017-10-01T04:40:05.769Z,8.62
2017-10-01T04:42:33.500Z,8.63
2017-10-01T04:45:01.268Z,8.74
2017-10-01T04:47:29.037Z,8.78
2017-10-01T04:49:57.480Z,8.66
2017-10-01T04:52:25.244Z,8.61
2017-10-01T04:54:53.013Z,8.71
2017-10-01T04:57:20.715Z,8.76
2017-10-01T04:59:49.367Z,8.71
2017-10-01T05:02:17.070Z,8.74
2017-10-01T05:04:44.852Z,8.69
2017-10-01T05:07:12.530Z,8.79
2017-10-01T05:09:40.278Z,8.84
2017-10-01T05:12:08.165Z,8.78
2017-10-01T05:14:35.958Z,8.72
2017-10-01T05:17:03.790Z,8.74
2017-10-01T05:19:31.561Z,8.63
2017-10-01T05:21:59.307Z,8.61
2017-10-01T05:24:27.004Z,8.79
2017-10-01T05:26:54.760Z,8.83
2017-10-01T05:29:22.479Z,8.90
2017-10-01T05:31:50.232Z,8.94
2017-10-01T05:34:17.948Z,9.00
2017-10-01T05:36:45.681Z,9.06
2017-10-01T05:39:13.451Z,9.02
2017-10-01T05:41:41.203Z,9.06
2017-10-01T05:44:08.969Z,9.07
2017-10-01T05:46:36.767Z,9.11
2017-10-01T05:49:04.473Z,9.14
2017-10-01T05:51:32.252Z,9.18
2017-10-01T05:54:00.025Z,9.20
2017-10-01T05:56:27.880Z,9.22
2017-10-01T05:58:55.726Z,9.14
2017-10-01T06:01:23.442Z,9.19
2017-10-01T06:03:51.192Z,9.29
2017-10-01T06:06:18.961Z,9.40
2017-10-01T06:08:46.683Z,9.42
2017-10-01T06:11:14.446Z,9.49
2017-10-01T06:13:42.190Z,9.38
2017-10-01T06:16:10.686Z,9.41
2017-10-01T06:18:38.385Z,9.61
2017-10-01T06:21:06.063Z,9.74
2017-10-01T06:23:33.957Z,9.77
2017-10-01T06:26:01.745Z,9.77
2017-10-01T06:28:29.502Z,9.79
2017-10-01T06:30:57.189Z,9.95
2017-10-01T06:33:25.088Z,10.07
2017-10-01T06:35:52.864Z,10.13
2017-10-01T06:38:20.669Z,10.22
2017-10-01T06:40:48.362Z,10.20
2017-10-01T06:43:16.137Z,10.30
2017-10-01T06:45:45.055Z,10.34
2017-10-01T06:48:13.046Z,10.44
2017-10-01T06:50:40.853Z,10.52
2017-10-01T06:53:08.556Z,10.59
2017-10-01T06:55:36.305Z,10.66
2017-10-01T06:58:03.997Z,10.80
2017-10-01T07:00:31.808Z,10.92
2017-10-01T07:02:59.614Z,10.95
2017-10-01T07:05:27.449Z,11.06
2017-10-01T07:07:55.254Z,11.05
2017-10-01T07:10:23.124Z,11.11
2017-10-01T07:12:50.873Z,11.19
2017-10-01T07:15:18.602Z,11.26
2017-10-01T07:17:46.306Z,11.32
2017-10-01T07:20:14.014Z,11.32
2017-10-01T07:22:41.783Z,11.30
2017-10-01T07:25:09.536Z,11.38
2017-10-01T07:27:38.357Z,11.38
2017-10-01T07:30:06.711Z,11.47
2017-10-01T07:32:34.420Z,11.52
2017-10-01T07:35:02.177Z,11.59
2017-10-01T07:37:30.746Z,11.61
2017-10-01T07:39:58.474Z,11.69
2017-10-01T07:42:26.259Z,11.76
2017-10-01T07:44:54.131Z,11.87
2017-10-01T07:47:21.921Z,11.92
2017-10-01T07:49:50.237Z,11.95
2017-10-01T07:52:18.076Z,12.02
2017-10-01T07:54:45.859Z,12.10
2017-10-01T07:57:13.612Z,12.13
2017-10-01T07:59:41.422Z,12.16
2017-10-01T08:02:09.327Z,12.24
2017-10-01T08:04:37.482Z,12.22
2017-10-01T08:07:05.447Z,12.21
2017-10-01T08:09:33.264Z,12.20
2017-10-01T08:12:01.372Z,12.32
2017-10-01T08:14:29.162Z,12.43
2017-10-01T08:16:56.879Z,12.46
2017-10-01T08:19:24.644Z,12.54
2017-10-01T08:21:52.417Z,12.58
2017-10-01T08:24:20.292Z,12.59
2017-10-01T08:26:48.083Z,12.51
2017-10-01T08:29:15.936Z,12.47
2017-10-01T08:31:43.771Z,12.48
2017-10-01T08:34:11.572Z,12.57
2017-10-01T08:36:39.309Z,12.57
2017-10-01T08:39:07.088Z,12.46
2017-10-01T08:41:34.840Z,12.49
2017-10-01T08:44:02.790Z,12.60
2017-10-01T08:46:30.853Z,12.59
2017-10-01T08:48:58.749Z,12.61
2017-10-01T08:51:26.767Z,12.62
2017-10-01T08:53:54.617Z,12.72
2017-10-01T08:56:22.498Z,12.77
2017-10-01T08:58:50.323Z,12.86
2017-10-01T09:01:18.056Z,12.80
2017-10-01T09:03:45.897Z,12.96
2017-10-01T09:06:13.667Z,12.87
2017-10-01T09:08:41.567Z,12.92
2017-10-01T09:11:09.443Z,12.82
2017-10-01T09:13:38.234Z,12.81
2017-10-01T09:16:06.071Z,12.83
2017-10-01T09:18:33.776Z,12.91
2017-10-01T09:21:01.547Z,12.88
2017-10-01T09:23:29.396Z,12.97
2017-10-01T09:25:57.167Z,13.00
2017-10-01T09:28:24.952Z,13.13
2017-10-01T09:30:52.722Z,13.20
2017-10-01T09:33:20.513Z,13.20
2017-10-01T09:35:48.284Z,13.21
2017-10-01T09:38:15.997Z,13.11
2017-10-01T09:40:43.714Z,13.21
2017-10-01T09:43:11.455Z,13.29
2017-10-01T09:45:39.297Z,13.28
2017-10-01T09:48:07.462Z,13.31
2017-10-01T09:50:35.165Z,13.35
2017-10-01T09:53:02.956Z,13.32
2017-10-01T09:55:32.082Z,13.24
2017-10-01T09:58:01.384Z,13.19
2017-10-01T10:00:29.183Z,13.26
2017-10-01T10:02:57.044Z,13.17
2017-10-01T10:05:24.944Z,13.07
2017-10-01T10:07:52.733Z,13.09
2017-10-01T10:10:21.562Z,13.03
2017-10-01T10:12:49.445Z,13.01
2017-10-01T10:15:17.306Z,12.90
2017-10-01T10:17:45.052Z,12.86
2017-10-01T10:20:12.916Z,12.72
2017-10-01T10:22:40.696Z,12.67
2017-10-01T10:25:08.425Z,12.87
2017-10-01T10:27:36.221Z,12.71
2017-10-01T10:30:03.974Z,12.70
2017-10-01T10:32:31.775Z,12.81
2017-10-01T10:34:59.563Z,12.84
2017-10-01T10:37:27.318Z,12.78
2017-10-01T10:39:55.062Z,12.82
2017-10-01T10:42:22.944Z,12.92
2017-10-01T10:44:51.050Z,12.88
2017-10-01T10:47:18.747Z,12.83
2017-10-01T10:49:46.651Z,12.92
2017-10-01T10:52:14.402Z,12.99
2017-10-01T10:54:43.448Z,13.04
2017-10-01T10:57:11.261Z,12.97
2017-10-01T10:59:39.134Z,13.06
2017-10-01T11:02:07.937Z,13.09
2017-10-01T11:04:35.635Z,13.07
2017-10-01T11:07:04.043Z,13.10
2017-10-01T11:09:31.933Z,13.16
2017-10-01T11:11:59.645Z,13.23
2017-10-01T11:14:27.815Z,13.31
2017-10-01T11:16:55.583Z,13.27
2017-10-01T11:19:23.322Z,13.14
2017-10-01T11:21:51.099Z,13.25
2017-10-01T11:24:18.795Z,13.09
2017-10-01T11:26:46.682Z,13.22
2017-10-01T11:29:14.496Z,13.19
2017-10-01T11:31:42.246Z,13.21
2017-10-01T11:34:10.019Z,13.28
2017-10-01T11:36:37.728Z,13.18
2017-10-01T11:39:06.793Z,13.23
2017-10-01T11:41:34.492Z,13.14
2017-10-01T11:44:02.180Z,13.20
2017-10-01T11:46:30.011Z,13.19
2017-10-01T11:48:57.707Z,13.25
2017-10-01T11:51:25.477Z,13.39
2017-10-01T11:53:53.319Z,13.35
2017-10-01T11:56:21.076Z,13.53
2017-10-01T11:58:48.891Z,13.46
2017-10-01T12:01:16.630Z,13.26
2017-10-01T12:03:44.440Z,13.28
2017-10-01T12:06:12.156Z,13.22
2017-10-01T12:08:40.648Z,13.15
2017-10-01T12:11:08.402Z,13.36
2017-10-01T12:13:37.035Z,13.41
2017-10-01T12:16:04.949Z,13.48
2017-10-01T12:18:32.722Z,13.39
2017-10-01T12:21:01.362Z,13.35
2017-10-01T12:23:29.114Z,13.36
2017-10-01T12:25:56.828Z,13.42
2017-10-01T12:28:24.656Z,13.59
2017-10-01T12:30:52.428Z,13.72
2017-10-01T12:33:20.636Z,13.69
2017-10-01T12:35:48.545Z,13.71
2017-10-01T12:38:17.331Z,13.65
2017-10-01T12:40:45.409Z,13.62
2017-10-01T12:43:13.798Z,13.76
2017-10-01T12:45:41.593Z,13.85
2017-10-01T12:48:09.416Z,13.72
2017-10-01T12:50:37.272Z,13.77
2017-10-01T12:53:05.336Z,13.82
2017-10-01T12:55:33.161Z,13.77
2017-10-01T12:58:01.048Z,13.77
2017-10-01T13:00:33.816Z,13.79
2017-10-01T13:03:01.697Z,13.88
2017-10-01T13:05:29.461Z,13.85
2017-10-01T13:07:57.258Z,13.88
2017-10-01T13:10:25.058Z,13.97
2017-10-01T13:12:52.804Z,13.86
2017-10-01T13:15:20.647Z,13.88
2017-10-01T13:17:48.549Z,13.83
2017-10-01T13:20:16.630Z,13.81
2017-10-01T13:22:44.418Z,13.83
2017-10-01T13:25:13.396Z,13.91
2017-10-01T13:27:41.330Z,13.87
2017-10-01T13:30:09.107Z,13.90
2017-10-01T13:32:37.870Z,13.91
2017-10-01T13:35:05.663Z,13.98
2017-10-01T13:37:33.569Z,14.20
2017-10-01T13:40:01.442Z,14.30
2017-10-01T13:42:29.199Z,14.15
2017-10-01T13:44:56.946Z,13.99
2017-10-01T13:47:24.768Z,13.98
2017-10-01T13:49:52.653Z,13.94
2017-10-01T13:52:20.657Z,13.99
2017-10-01T13:54:48.498Z,13.98
2017-10-01T13:57:16.377Z,13.96
2017-10-01T13:59:44.275Z,14.01
2017-10-01T14:02:12.119Z,14.02
2017-10-01T14:04:40.027Z,14.05
2017-10-01T14:07:07.746Z,14.07
2017-10-01T14:09:36.500Z,14.06
2017-10-01T14:12:04.345Z,14.06
2017-10-01T14:14:32.175Z,14.07
2017-10-01T14:16:59.904Z,14.11
2017-10-01T14:19:30.870Z,14.12
2017-10-01T14:21:58.594Z,14.14
2017-10-01T14:24:26.384Z,14.14
2017-10-01T14:26:54.259Z,14.14
2017-10-01T14:29:22.030Z,14.12
2017-10-01T14:31:50.021Z,14.16
2017-10-01T14:34:18.738Z,14.10
2017-10-01T14:36:46.691Z,14.18
2017-10-01T14:39:14.660Z,14.18
2017-10-01T14:41:42.749Z,14.23
2017-10-01T14:44:10.710Z,14.23
2017-10-01T14:46:38.746Z,14.22
2017-10-01T14:49:06.589Z,14.20
2017-10-01T14:51:34.381Z,14.19
2017-10-01T14:54:02.224Z,14.17
2017-10-01T14:56:31.038Z,14.15
2017-10-01T14:58:58.966Z,14.18
2017-10-01T15:01:27.906Z,14.17
2017-10-01T15:03:55.876Z,14.15
2017-10-01T15:06:23.914Z,14.11
2017-10-01T15:08:51.745Z,14.14
2017-10-01T15:11:19.584Z,14.11
2017-10-01T15:13:47.451Z,14.12
2017-10-01T15:16:15.898Z,14.14
2017-10-01T15:18:44.011Z,14.14
2017-10-01T15:21:11.764Z,14.12
2017-10-01T15:23:40.373Z,14.14
2017-10-01T15:26:08.580Z,14.07
2017-10-01T15:28:36.530Z,14.08
2017-10-01T15:31:05.009Z,14.07
2017-10-01T15:33:32.819Z,14.02
2017-10-01T15:36:00.684Z,14.04
2017-10-01T15:38:29.700Z,14.06
2017-10-01T15:40:59.206Z,14.04
2017-10-01T15:43:26.985Z,14.03
2017-10-01T15:45:54.776Z,14.04
2017-10-01T15:48:22.548Z,14.05
2017-10-01T15:50:50.293Z,14.05
2017-10-01T15:53:18.303Z,14.04
2017-10-01T15:55:46.143Z,14.15
2017-10-01T15:58:13.987Z,14.23
2017-10-01T16:00:41.828Z,14.23
2017-10-01T16:03:09.983Z,13.99
2017-10-01T16:05:37.819Z,13.90
2017-10-01T16:08:06.859Z,13.79
2017-10-01T16:10:35.350Z,13.73
2017-10-01T16:13:04.308Z,13.82
2017-10-01T16:15:32.180Z,13.81
2017-10-01T16:18:00.168Z,13.80
2017-10-01T16:20:31.752Z,13.77
2017-10-01T16:23:01.107Z,13.78
2017-10-01T16:25:29.088Z,13.81
2017-10-01T16:27:57.317Z,13.79
2017-10-01T16:30:25.633Z,13.87
2017-10-01T16:32:54.092Z,13.86
2017-10-01T16:35:22.926Z,13.79
2017-10-01T16:37:51.782Z,13.74
2017-10-01T16:40:19.708Z,13.74
2017-10-01T16:42:47.889Z,13.72
2017-10-01T16:45:15.727Z,13.69
2017-10-01T16:47:43.582Z,13.67
2017-10-01T16:50:11.328Z,13.52
2017-10-01T16:52:39.815Z,13.49
2017-10-01T16:55:07.821Z,13.49
2017-10-01T16:57:35.575Z,13.55
2017-10-01T17:00:03.467Z,13.58
2017-10-01T17:02:31.290Z,13.60
2017-10-01T17:04:59.126Z,13.60
2017-10-01T17:07:26.963Z,13.56
2017-10-01T17:09:54.756Z,13.56
2017-10-01T17:12:23.748Z,13.53
2017-10-01T17:14:51.988Z,13.49
2017-10-01T17:17:21.185Z,13.48
2017-10-01T17:19:49.426Z,13.41
2017-10-01T17:22:17.324Z,13.42
2017-10-01T17:24:45.470Z,13.41
2017-10-01T17:27:13.950Z,13.39
2017-10-01T17:29:42.041Z,13.42
2017-10-01T17:32:09.907Z,13.38
2017-10-01T17:34:38.986Z,13.29
2017-10-01T17:37:06.783Z,13.26
2017-10-01T17:39:34.735Z,13.25
2017-10-01T17:42:06.916Z,13.29
2017-10-01T17:44:34.802Z,13.26
2017-10-01T17:47:02.839Z,13.26
2017-10-01T17:49:30.901Z,13.27
2017-10-01T17:51:58.675Z,13.25
2017-10-01T17:54:26.965Z,13.24
2017-10-01T17:56:54.830Z,13.22
2017-10-01T17:59:22.706Z,13.23
2017-10-01T18:01:50.659Z,13.27
2017-10-01T18:04:18.433Z,13.24
2017-10-01T18:06:46.396Z,13.23
2017-10-01T18:09:14.284Z,13.24
2017-10-01T18:11:42.056Z,13.23
2017-10-01T18:14:09.940Z,13.22
2017-10-01T18:16:37.734Z,13.22
2017-10-01T18:19:05.512Z,13.20
2017-10-01T18:21:33.345Z,13.19
2017-10-01T18:24:01.542Z,13.15
2017-10-01T18:26:29.442Z,13.18
2017-10-01T18:28:58.295Z,13.13
2017-10-01T18:31:26.182Z,13.12
2017-10-01T18:33:53.964Z,13.08
2017-10-01T18:36:21.776Z,13.07
2017-10-01T18:38:49.568Z,13.07
2017-10-01T18:41:17.368Z,13.10
2017-10-01T18:43:45.214Z,13.07
2017-10-01T18:46:12.962Z,12.99
2017-10-01T18:48:40.825Z,13.05
2017-10-01T18:51:09.625Z,12.92
2017-10-01T18:53:37.638Z,12.99
2017-10-01T18:56:05.629Z,12.98
2017-10-01T18:58:33.490Z,12.94
2017-10-01T19:01:01.232Z,12.83
2017-10-01T19:03:29.183Z,12.78
2017-10-01T19:05:56.950Z,12.82
2017-10-01T19:08:24.805Z,12.81
2017-10-01T19:10:52.646Z,12.73
2017-10-01T19:13:20.465Z,12.73
2017-10-01T19:15:48.270Z,12.59
2017-10-01T19:18:16.149Z,12.62
2017-10-01T19:20:43.981Z,12.54
2017-10-01T19:23:11.754Z,12.49
2017-10-01T19:25:39.500Z,12.47
2017-10-01T19:28:07.673Z,12.45
2017-10-01T19:30:35.382Z,12.38
2017-10-01T19:33:03.229Z,12.30
2017-10-01T19:35:31.089Z,12.37
2017-10-01T19:37:58.828Z,12.39
2017-10-01T19:40:26.570Z,12.44
2017-10-01T19:42:54.405Z,12.43
2017-10-01T19:45:22.160Z,12.43
2017-10-01T19:47:49.926Z,12.49
2017-10-01T19:50:17.726Z,12.48
2017-10-01T19:52:45.484Z,12.42
2017-10-01T19:55:13.290Z,12.42
2017-10-01T19:57:41.121Z,12.40
2017-10-01T20:00:08.915Z,12.30
2017-10-01T20:02:36.682Z,12.31
2017-10-01T20:05:04.941Z,12.31
2017-10-01T20:07:33.183Z,12.33
2017-10-01T20:10:00.914Z,12.37
2017-10-01T20:12:28.762Z,12.33
2017-10-01T20:14:56.614Z,12.29
2017-10-01T20:17:24.359Z,12.27
2017-10-01T20:19:52.106Z,12.23
2017-10-01T20:22:19.970Z,12.19
2017-10-01T20:24:47.674Z,12.21
2017-10-01T20:27:15.424Z,12.26
2017-10-01T20:29:43.158Z,12.24
2017-10-01T20:32:11.598Z,12.26
2017-10-01T20:34:39.398Z,12.19
2017-10-01T20:37:07.111Z,12.22
2017-10-01T20:39:35.110Z,12.14
2017-10-01T20:42:03.815Z,12.05
2017-10-01T20:44:31.548Z,12.02
2017-10-01T20:46:59.379Z,11.98
2017-10-01T20:49:27.115Z,11.94
2017-10-01T20:51:55.298Z,12.04
2017-10-01T20:54:23.240Z,12.03
2017-10-01T20:56:50.990Z,11.93
2017-10-01T20:59:18.741Z,11.93
2017-10-01T21:01:46.882Z,11.90
2017-10-01T21:04:14.691Z,11.78
2017-10-01T21:06:42.451Z,11.69
2017-10-01T21:09:11.410Z,11.69
2017-10-01T21:11:39.279Z,11.63
2017-10-01T21:14:07.266Z,11.56
2017-10-01T21:16:35.018Z,11.41
2017-10-01T21:19:03.452Z,11.44
2017-10-01T21:21:31.211Z,11.28
2017-10-01T21:23:59.002Z,11.13
2017-10-01T21:26:26.704Z,11.04
2017-10-01T21:28:55.684Z,11.03
2017-10-01T21:31:23.423Z,10.97
2017-10-01T21:33:51.169Z,10.95
2017-10-01T21:36:18.924Z,10.90
2017-10-01T21:38:48.296Z,10.83
2017-10-01T21:41:16.102Z,10.74
2017-10-01T21:43:44.458Z,10.75
2017-10-01T21:46:12.170Z,10.85
2017-10-01T21:48:39.888Z,10.85
2017-10-01T21:51:07.644Z,10.73
2017-10-01T21:53:35.440Z,10.58
2017-10-01T21:56:03.153Z,10.56
2017-10-01T21:58:30.926Z,10.55
2017-10-01T22:00:58.688Z,10.52
2017-10-01T22:03:26.522Z,10.53
2017-10-01T22:05:54.216Z,10.49
2017-10-01T22:08:21.978Z,10.59
2017-10-01T22:10:49.732Z,10.67
2017-10-01T22:13:17.467Z,10.53
2017-10-01T22:15:45.215Z,10.51
2017-10-01T22:18:12.933Z,10.34
2017-10-01T22:20:40.685Z,10.31
2017-10-01T22:23:09.544Z,10.27
2017-10-01T22:25:37.262Z,10.28
2017-10-01T22:28:05.124Z,10.15
2017-10-01T22:30:32.849Z,10.07
2017-10-01T22:33:00.610Z,10.15
2017-10-01T22:35:28.356Z,10.23
2017-10-01T22:37:56.061Z,10.19
2017-10-01T22:40:23.861Z,10.20
2017-10-01T22:42:51.573Z,10.19
2017-10-01T22:45:19.393Z,10.14
2017-10-01T22:47:47.087Z,10.06
2017-10-01T22:50:14.989Z,10.05
2017-10-01T22:52:42.690Z,10.11
2017-10-01T22:55:10.510Z,10.11
2017-10-01T22:57:38.242Z,10.10
2017-10-01T23:00:06.015Z,10.18
2017-10-01T23:02:33.940Z,10.21
2017-10-01T23:05:01.620Z,10.19
2017-10-01T23:07:29.357Z,10.24
2017-10-01T23:09:57.055Z,10.22
2017-10-01T23:12:24.836Z,10.16
2017-10-01T23:14:52.563Z,10.10
2017-10-01T23:17:20.283Z,10.13
2017-10-01T23:19:48.052Z,10.04
2017-10-01T23:22:15.757Z,9.94
2017-10-01T23:24:43.467Z,9.99
2017-10-01T23:27:11.228Z,10.00
2017-10-01T23:29:38.948Z,9.90
2017-10-01T23:32:06.705Z,9.90
2017-10-01T23:34:34.406Z,9.89
2017-10-01T23:37:02.285Z,9.95
2017-10-01T23:39:30.156Z,9.92
2017-10-01T23:41:57.832Z,9.98
2017-10-01T23:44:25.646Z,9.81
2017-10-01T23:46:53.355Z,9.76
2017-10-01T23:49:21.054Z,9.83
2017-10-01T23:51:48.784Z,9.92
2017-10-01T23:54:16.465Z,9.87
2017-10-01T23:56:44.279Z,9.86
2017-10-01T23:59:12.014Z,9.89
